Time;durP1;ratioP1;P1;durP2;ratioP2;P2;SDS_P1;SDS_P2;PMS_P1;PMS_P2;Temp;Humidity;BMP_temperature;BMP_pressure;BME280_temperature;BME280_humidity;BME280_pressure;Samples;Min_cycle;Max_cycle;Signal;HPM_P1;HPM_P2
2021/05/31 00:02:14;;;;;;;6.53;5.93;;;;;;;;;;5050760;28;20406;-52
2021/05/31 00:04:40;;;;;;;10.17;6.80;;;;;;;;;;5051270;28;20957;-52
2021/05/31 00:07:06;;;;;;;6.70;6.10;;;;;;;;;;5050872;28;20623;-52
2021/05/31 00:09:33;;;;;;;6.47;5.87;;;;;;;;;;5051083;28;20929;-52
2021/05/31 00:12:00;;;;;;;9.20;6.27;;;;;;;;;;5050884;28;20394;-52
2021/05/31 00:14:26;;;;;;;6.17;5.57;;;;;;;;;;5051114;28;20405;-52
2021/05/31 00:16:52;;;;;;;7.17;6.53;;;;;;;;;;5051046;28;20443;-52
2021/05/31 00:19:22;;;;;;;6.60;5.83;;;;;;;;;;5050723;28;20517;-52
2021/05/31 00:21:48;;;;;;;8.17;6.10;;;;;;;;;;5050821;28;20431;-52
2021/05/31 00:24:14;;;;;;;6.20;5.63;;;;;;;;;;5050826;28;20387;-52
2021/05/31 00:26:40;;;;;;;8.17;6.37;;;;;;;;;;5051048;28;20445;-52
2021/05/31 00:29:06;;;;;;;6.43;5.83;;;;;;;;;;5050530;28;20457;-52
2021/05/31 00:31:33;;;;;;;6.03;5.43;;;;;;;;;;5050712;28;20822;-52
2021/05/31 00:33:59;;;;;;;11.17;5.93;;;;;;;;;;5050803;28;20417;-52
2021/05/31 00:36:25;;;;;;;7.43;5.40;;;;;;;;;;5051281;28;20810;-52
2021/05/31 00:38:51;;;;;;;11.90;5.57;;;;;;;;;;5050707;28;20505;-52
2021/05/31 00:41:17;;;;;;;11.83;5.63;;;;;;;;;;5050750;28;20404;-52
2021/05/31 00:43:43;;;;;;;8.23;6.77;;;;;;;;;;5050535;28;20413;-52
2021/05/31 00:46:10;;;;;;;11.47;6.57;;;;;;;;;;5050745;28;20449;-52
2021/05/31 00:48:39;;;;;;;8.03;6.07;;;;;;;;;;5050572;28;20425;-52
2021/05/31 00:51:07;;;;;;;6.57;5.80;;;;;;;;;;5051030;28;20416;-52
2021/05/31 00:53:33;;;;;;;6.23;5.53;;;;;;;;;;5050362;28;20424;-52
2021/05/31 00:55:59;;;;;;;8.60;6.00;;;;;;;;;;5050789;28;20405;-52
2021/05/31 00:58:27;;;;;;;6.43;5.83;;;;;;;;;;5050599;28;20504;-52
2021/05/31 01:00:54;;;;;;;7.77;5.90;;;;;;;;;;5050311;28;20409;-52
2021/05/31 01:03:20;;;;;;;8.20;6.40;;;;;;;;;;5050181;28;20409;-52
2021/05/31 01:05:47;;;;;;;6.20;5.60;;;;;;;;;;5050325;28;20405;-52
2021/05/31 01:08:17;;;;;;;6.80;5.50;;;;;;;;;;5050470;28;20484;-52
2021/05/31 01:11:09;;;;;;;5.60;5.10;;;;;;;;;;5050438;28;20405;-52
2021/05/31 01:13:41;;;;;;;6.43;5.30;;;;;;;;;;5041890;28;20414;-53
2021/05/31 01:16:13;;;;;;;6.03;5.43;;;;;;;;;;5050262;28;20409;-52
2021/05/31 01:18:40;;;;;;;6.70;6.10;;;;;;;;;;5050311;28;20419;-52
2021/05/31 01:21:18;;;;;;;9.30;6.73;;;;;;;;;;5050334;28;20911;-52
2021/05/31 01:23:47;;;;;;;8.37;6.50;;;;;;;;;;5050414;28;20487;-52
2021/05/31 01:26:20;;;;;;;16.43;7.07;;;;;;;;;;5050428;28;20463;-52
2021/05/31 01:29:24;;;;;;;6.60;6.00;;;;;;;;;;5050550;28;20424;-52
2021/05/31 01:31:59;;;;;;;8.40;6.07;;;;;;;;;;5038703;28;20421;-52
2021/05/31 01:34:26;;;;;;;11.70;7.80;;;;;;;;;;5049943;28;20415;-52
2021/05/31 01:37:13;;;;;;;8.60;6.40;;;;;;;;;;5050565;28;20417;-52
2021/05/31 01:39:41;;;;;;;12.40;7.40;;;;;;;;;;5049968;28;20425;-52
2021/05/31 01:42:08;;;;;;;7.37;6.57;;;;;;;;;;5049952;28;20481;-52
2021/05/31 01:44:34;;;;;;;10.27;6.63;;;;;;;;;;5050076;28;20904;-52
2021/05/31 01:47:00;;;;;;;7.70;7.00;;;;;;;;;;5050251;28;20499;-52
2021/05/31 01:49:27;;;;;;;7.10;6.37;;;;;;;;;;5050186;28;20424;-52
2021/05/31 01:51:54;;;;;;;6.87;6.20;;;;;;;;;;5050001;28;20494;-52
2021/05/31 01:54:20;;;;;;;8.17;6.47;;;;;;;;;;5050046;28;20915;-52
2021/05/31 01:56:47;;;;;;;7.47;6.77;;;;;;;;;;5049805;28;20409;-52
2021/05/31 01:59:13;;;;;;;9.90;6.80;;;;;;;;;;5050139;28;20421;-52
2021/05/31 02:01:40;;;;;;;7.43;5.90;;;;;;;;;;5050394;28;20397;-52
2021/05/31 02:04:06;;;;;;;6.80;6.10;;;;;;;;;;5050064;28;20499;-51
2021/05/31 02:06:32;;;;;;;7.67;5.90;;;;;;;;;;5049821;28;20476;-52
2021/05/31 02:08:58;;;;;;;7.83;7.03;;;;;;;;;;5049911;28;20421;-51
2021/05/31 02:11:32;;;;;;;11.80;5.77;;;;;;;;;;5049679;28;20463;-52
2021/05/31 02:14:01;;;;;;;9.17;6.70;;;;;;;;;;5053592;28;20403;-51
2021/05/31 02:16:34;;;;;;;7.47;6.53;;;;;;;;;;5053327;28;20921;-51
2021/05/31 02:19:02;;;;;;;8.13;6.87;;;;;;;;;;5053328;28;20437;-51
2021/05/31 02:21:28;;;;;;;9.77;7.60;;;;;;;;;;5053010;28;20444;-52
2021/05/31 02:23:54;;;;;;;9.30;7.10;;;;;;;;;;5053194;28;20432;-51
2021/05/31 02:26:20;;;;;;;15.30;7.70;;;;;;;;;;5053368;28;20950;-51
2021/05/31 02:28:47;;;;;;;7.40;6.70;;;;;;;;;;5053518;28;20789;-51
2021/05/31 02:31:15;;;;;;;12.37;7.70;;;;;;;;;;5052904;28;20478;-52
2021/05/31 02:33:41;;;;;;;8.07;7.27;;;;;;;;;;5053021;28;20401;-52
2021/05/31 02:36:08;;;;;;;8.90;7.50;;;;;;;;;;5053080;28;20400;-51
2021/05/31 02:38:34;;;;;;;7.83;7.07;;;;;;;;;;5052967;28;20436;-51
2021/05/31 02:41:00;;;;;;;11.63;6.87;;;;;;;;;;5052885;28;20396;-51
2021/05/31 02:43:26;;;;;;;10.27;7.17;;;;;;;;;;5052812;28;20466;-51
2021/05/31 02:45:52;;;;;;;10.30;8.00;;;;;;;;;;5052977;28;20440;-51
2021/05/31 02:48:18;;;;;;;9.03;7.00;;;;;;;;;;5052840;28;20466;-51
2021/05/31 02:50:44;;;;;;;12.47;7.60;;;;;;;;;;5052994;28;20409;-51
2021/05/31 02:53:10;;;;;;;11.73;7.20;;;;;;;;;;5052614;28;20958;-51
2021/05/31 02:55:36;;;;;;;12.00;8.00;;;;;;;;;;5052984;28;20924;-51
2021/05/31 02:58:02;;;;;;;10.60;7.60;;;;;;;;;;5053016;28;20516;-51
2021/05/31 03:00:29;;;;;;;8.90;7.50;;;;;;;;;;5052830;28;20928;-52
2021/05/31 03:02:55;;;;;;;9.20;7.10;;;;;;;;;;5052276;28;20770;-51
2021/05/31 03:05:22;;;;;;;8.27;7.37;;;;;;;;;;5052647;28;20405;-51
2021/05/31 03:07:49;;;;;;;16.27;8.03;;;;;;;;;;5052199;28;20455;-51
2021/05/31 03:10:15;;;;;;;10.53;7.97;;;;;;;;;;5052509;28;20770;-51
2021/05/31 03:12:42;;;;;;;13.20;7.33;;;;;;;;;;5052149;28;20581;-51
2021/05/31 03:15:09;;;;;;;12.40;7.63;;;;;;;;;;5052495;28;20396;-51
2021/05/31 03:17:36;;;;;;;10.50;8.07;;;;;;;;;;5052202;28;20415;-51
2021/05/31 03:20:02;;;;;;;10.60;7.33;;;;;;;;;;5052175;28;20444;-51
2021/05/31 03:22:28;;;;;;;9.63;7.50;;;;;;;;;;5051420;28;20439;-52
2021/05/31 03:24:54;;;;;;;11.20;8.10;;;;;;;;;;5052086;28;20430;-51
2021/05/31 03:27:19;;;;;;;8.20;7.40;;;;;;;;;;5052115;28;20538;-51
2021/05/31 03:29:45;;;;;;;10.23;7.07;;;;;;;;;;5052092;28;20441;-51
2021/05/31 03:32:11;;;;;;;11.93;8.20;;;;;;;;;;5052138;28;20400;-51
2021/05/31 03:34:37;;;;;;;9.50;7.57;;;;;;;;;;5051854;28;20789;-51
2021/05/31 03:37:04;;;;;;;12.90;8.00;;;;;;;;;;5051778;28;20501;-51
2021/05/31 03:39:30;;;;;;;11.60;7.90;;;;;;;;;;5051812;28;20501;-51
2021/05/31 03:41:56;;;;;;;9.13;7.50;;;;;;;;;;5051691;28;20761;-51
2021/05/31 03:44:22;;;;;;;11.50;8.47;;;;;;;;;;5051608;28;20411;-51
2021/05/31 03:46:48;;;;;;;8.40;7.60;;;;;;;;;;5051766;28;20521;-51
2021/05/31 03:49:14;;;;;;;9.03;7.20;;;;;;;;;;5051767;28;20408;-51
2021/05/31 03:51:40;;;;;;;16.30;7.13;;;;;;;;;;5051559;28;20397;-51
2021/05/31 03:54:06;;;;;;;8.93;7.30;;;;;;;;;;5051606;28;20392;-51
2021/05/31 03:56:32;;;;;;;10.43;7.60;;;;;;;;;;5051963;28;20888;-51
2021/05/31 03:58:58;;;;;;;9.53;7.40;;;;;;;;;;5051303;28;20428;-52
2021/05/31 04:01:24;;;;;;;9.40;8.27;;;;;;;;;;5051357;28;20410;-51
2021/05/31 04:03:50;;;;;;;16.10;7.17;;;;;;;;;;5051136;28;20815;-51
2021/05/31 04:11:46;;;;;;;9.97;7.90;;;;;;;;;;5051455;28;20403;-51
2021/05/31 04:14:16;;;;;;;10.53;7.50;;;;;;;;;;5051013;28;20400;-51
2021/05/31 04:16:46;;;;;;;9.70;7.13;;;;;;;;;;5051180;28;20412;-52
2021/05/31 04:19:12;;;;;;;9.83;8.83;;;;;;;;;;5050950;28;20424;-51
2021/05/31 04:21:39;;;;;;;12.20;7.60;;;;;;;;;;5051029;28;20416;-51
2021/05/31 04:24:05;;;;;;;10.50;7.70;;;;;;;;;;5050823;28;20488;-52
2021/05/31 04:26:33;;;;;;;10.47;7.50;;;;;;;;;;5050979;28;20540;-52
2021/05/31 04:28:59;;;;;;;10.47;7.80;;;;;;;;;;5050658;28;20463;-51
2021/05/31 04:31:25;;;;;;;9.10;7.23;;;;;;;;;;5050945;28;20401;-52
2021/05/31 04:33:51;;;;;;;11.97;8.27;;;;;;;;;;5050322;28;20512;-51
2021/05/31 04:36:18;;;;;;;12.50;8.30;;;;;;;;;;5050587;28;20891;-52
2021/05/31 04:38:44;;;;;;;11.00;7.07;;;;;;;;;;5050631;28;20416;-52
2021/05/31 04:41:09;;;;;;;11.00;7.20;;;;;;;;;;5050812;28;20472;-53
2021/05/31 04:43:35;;;;;;;11.23;8.60;;;;;;;;;;5050603;28;20483;-52
2021/05/31 04:46:03;;;;;;;10.90;8.17;;;;;;;;;;5050827;28;20407;-51
2021/05/31 04:48:29;;;;;;;8.97;7.47;;;;;;;;;;5050760;28;20427;-51
2021/05/31 04:50:59;;;;;;;11.07;8.43;;;;;;;;;;5050636;28;20405;-51
2021/05/31 04:53:28;;;;;;;8.77;7.77;;;;;;;;;;5050495;28;20891;-51
2021/05/31 04:55:55;;;;;;;9.67;8.37;;;;;;;;;;5049169;28;20979;-51
2021/05/31 04:58:22;;;;;;;13.20;9.47;;;;;;;;;;5050973;28;20423;-52
2021/05/31 05:00:48;;;;;;;14.93;9.90;;;;;;;;;;5050538;28;20412;-51
2021/05/31 05:03:14;;;;;;;10.87;8.17;;;;;;;;;;5050412;28;20403;-52
2021/05/31 05:05:40;;;;;;;9.10;7.83;;;;;;;;;;5050442;28;20405;-52
2021/05/31 05:08:06;;;;;;;9.80;7.87;;;;;;;;;;5049811;28;20527;-52
2021/05/31 05:10:32;;;;;;;17.93;8.70;;;;;;;;;;5049814;28;20450;-51
2021/05/31 05:12:58;;;;;;;16.90;8.97;;;;;;;;;;5049900;28;20397;-51
2021/05/31 05:15:25;;;;;;;10.97;9.03;;;;;;;;;;5049957;28;20416;-51
2021/05/31 05:17:51;;;;;;;10.70;8.77;;;;;;;;;;5050067;28;20456;-51
2021/05/31 05:20:18;;;;;;;10.70;8.20;;;;;;;;;;5049737;28;20419;-51
2021/05/31 05:22:44;;;;;;;10.57;9.23;;;;;;;;;;5050237;28;20399;-51
2021/05/31 05:25:11;;;;;;;11.60;9.30;;;;;;;;;;5050247;28;20411;-51
2021/05/31 05:27:38;;;;;;;14.23;9.13;;;;;;;;;;5050380;28;20950;-51
2021/05/31 05:30:05;;;;;;;12.70;9.07;;;;;;;;;;5050159;28;20430;-51
2021/05/31 05:32:33;;;;;;;16.07;9.17;;;;;;;;;;5050051;28;20791;-52
2021/05/31 05:35:08;;;;;;;10.87;8.80;;;;;;;;;;5049970;28;20875;-53
2021/05/31 05:37:41;;;;;;;11.00;9.00;;;;;;;;;;5050107;28;20443;-52
2021/05/31 05:47:45;;;;;;;12.83;8.57;;;;;;;;;;5053507;28;20549;-52
2021/05/31 05:50:21;;;;;;;11.73;9.33;;;;;;;;;;5053824;28;20419;-52
2021/05/31 05:52:48;;;;;;;15.20;8.90;;;;;;;;;;5053708;28;20684;-51
2021/05/31 05:55:14;;;;;;;14.97;8.23;;;;;;;;;;5053877;28;20480;-51
2021/05/31 05:57:41;;;;;;;11.10;8.73;;;;;;;;;;5049441;28;20429;-51
2021/05/31 06:00:17;;;;;;;10.50;8.97;;;;;;;;;;5042933;28;20413;-52
2021/05/31 06:02:43;;;;;;;16.13;8.57;;;;;;;;;;5039698;28;20418;-52
2021/05/31 06:05:10;;;;;;;14.77;9.50;;;;;;;;;;5050174;28;20456;-52
2021/05/31 06:07:36;;;;;;;11.97;8.73;;;;;;;;;;5038779;28;20496;-52
2021/05/31 06:10:03;;;;;;;8.93;8.13;;;;;;;;;;5052158;28;20519;-52
2021/05/31 06:12:29;;;;;;;10.70;8.37;;;;;;;;;;5033260;28;20455;-52
2021/05/31 06:14:55;;;;;;;14.90;8.90;;;;;;;;;;5039699;28;20456;-52
2021/05/31 06:17:21;;;;;;;15.20;7.87;;;;;;;;;;5042911;28;20603;-52
2021/05/31 06:19:47;;;;;;;15.93;9.33;;;;;;;;;;5053436;28;20912;-52
2021/05/31 06:22:13;;;;;;;11.90;9.07;;;;;;;;;;5043656;28;20784;-52
2021/05/31 06:24:39;;;;;;;12.43;8.70;;;;;;;;;;5040427;28;20397;-52
2021/05/31 06:27:05;;;;;;;10.43;8.37;;;;;;;;;;5043599;28;20508;-51
2021/05/31 06:29:31;;;;;;;12.63;8.60;;;;;;;;;;5038416;28;20433;-52
2021/05/31 06:31:57;;;;;;;11.20;8.17;;;;;;;;;;5036052;28;20410;-52
2021/05/31 06:34:23;;;;;;;15.57;8.00;;;;;;;;;;5051262;28;20759;-52
2021/05/31 06:36:54;;;;;;;9.83;7.80;;;;;;;;;;5047436;28;20909;-52
2021/05/31 06:39:20;;;;;;;8.53;7.67;;;;;;;;;;5049750;28;20480;-52
2021/05/31 06:41:46;;;;;;;10.80;8.47;;;;;;;;;;5044370;28;20452;-52
2021/05/31 06:44:12;;;;;;;14.97;8.07;;;;;;;;;;5040637;28;20798;-51
2021/05/31 06:46:38;;;;;;;8.40;7.47;;;;;;;;;;5041876;28;20552;-52
2021/05/31 06:49:04;;;;;;;11.43;7.70;;;;;;;;;;5034470;28;20451;-52
2021/05/31 06:51:32;;;;;;;9.17;7.60;;;;;;;;;;5041728;28;20426;-52
2021/05/31 06:53:58;;;;;;;10.63;7.27;;;;;;;;;;5040871;28;20440;-52
2021/05/31 06:56:23;;;;;;;8.27;7.33;;;;;;;;;;5042182;28;20805;-51
2021/05/31 06:58:50;;;;;;;10.90;7.93;;;;;;;;;;5032878;28;20852;-52
2021/05/31 07:01:16;;;;;;;10.80;7.60;;;;;;;;;;5037611;28;20388;-52
2021/05/31 07:03:42;;;;;;;15.67;7.93;;;;;;;;;;5052495;28;20380;-52
2021/05/31 07:06:08;;;;;;;9.43;7.47;;;;;;;;;;5048690;28;20393;-52
2021/05/31 07:08:35;;;;;;;7.80;6.70;;;;;;;;;;5032407;28;20915;-52
2021/05/31 07:11:05;;;;;;;9.00;7.57;;;;;;;;;;5034498;28;20384;-51
2021/05/31 07:13:31;;;;;;;8.20;7.00;;;;;;;;;;5052246;28;20458;-53
2021/05/31 07:15:57;;;;;;;8.50;6.70;;;;;;;;;;5033041;28;20881;-52
2021/05/31 07:18:24;;;;;;;10.47;6.60;;;;;;;;;;5032405;28;20405;-53
2021/05/31 07:20:52;;;;;;;10.53;6.77;;;;;;;;;;5047646;28;20751;-52
2021/05/31 07:23:19;;;;;;;8.20;6.20;;;;;;;;;;5041678;28;20819;-52
2021/05/31 07:25:45;;;;;;;8.73;6.80;;;;;;;;;;5032169;28;20397;-52
2021/05/31 07:28:11;;;;;;;10.10;6.70;;;;;;;;;;5040430;28;20468;-52
2021/05/31 07:30:38;;;;;;;7.47;6.67;;;;;;;;;;5050449;28;20415;-52
2021/05/31 07:33:04;;;;;;;7.10;6.50;;;;;;;;;;5044660;28;20818;-52
2021/05/31 07:35:30;;;;;;;6.90;6.20;;;;;;;;;;5031803;28;20848;-53
2021/05/31 07:37:56;;;;;;;9.43;6.63;;;;;;;;;;5035310;28;20484;-52
2021/05/31 07:40:23;;;;;;;7.93;6.07;;;;;;;;;;5032687;28;20421;-52
2021/05/31 07:42:48;;;;;;;7.10;6.40;;;;;;;;;;5032175;28;20410;-52
2021/05/31 07:45:17;;;;;;;6.90;6.00;;;;;;;;;;5031752;28;20409;-52
2021/05/31 07:47:43;;;;;;;10.80;6.27;;;;;;;;;;5031689;28;20511;-52
2021/05/31 07:50:14;;;;;;;8.97;6.27;;;;;;;;;;5032008;28;20399;-52
2021/05/31 07:52:40;;;;;;;11.33;6.20;;;;;;;;;;5031647;28;20483;-52
2021/05/31 07:55:08;;;;;;;10.50;6.50;;;;;;;;;;5031543;28;20398;-52
2021/05/31 07:57:34;;;;;;;6.30;5.30;;;;;;;;;;5031788;28;20429;-52
2021/05/31 08:00:02;;;;;;;7.90;6.47;;;;;;;;;;5031843;28;20488;-52
2021/05/31 08:02:28;;;;;;;5.73;5.20;;;;;;;;;;5032655;28;20418;-53
2021/05/31 08:04:54;;;;;;;7.07;6.10;;;;;;;;;;5031473;28;20406;-53
2021/05/31 08:07:20;;;;;;;6.77;6.17;;;;;;;;;;5031295;28;20545;-53
2021/05/31 08:09:48;;;;;;;7.87;5.93;;;;;;;;;;5031312;28;20449;-52
2021/05/31 08:12:14;;;;;;;10.97;7.03;;;;;;;;;;5031570;28;20812;-51
2021/05/31 08:14:40;;;;;;;9.50;6.53;;;;;;;;;;5031608;28;20401;-52
2021/05/31 08:17:06;;;;;;;12.23;8.20;;;;;;;;;;5031342;28;20406;-51
2021/05/31 08:19:32;;;;;;;9.37;7.00;;;;;;;;;;5031348;28;20476;-51
2021/05/31 08:21:59;;;;;;;12.97;8.50;;;;;;;;;;5031057;28;20445;-52
2021/05/31 08:24:25;;;;;;;9.60;7.47;;;;;;;;;;5031142;28;20414;-51
2021/05/31 08:26:51;;;;;;;8.80;7.40;;;;;;;;;;5031017;28;20457;-53
2021/05/31 08:29:18;;;;;;;12.40;9.90;;;;;;;;;;5031210;28;20432;-52
2021/05/31 08:31:44;;;;;;;11.90;8.77;;;;;;;;;;5031280;28;20410;-52
2021/05/31 08:34:10;;;;;;;15.60;11.00;;;;;;;;;;5030975;28;20430;-52
2021/05/31 08:36:36;;;;;;;11.23;9.50;;;;;;;;;;5030810;28;20866;-52
2021/05/31 08:39:03;;;;;;;9.27;8.27;;;;;;;;;;5030841;28;20541;-52
2021/05/31 08:41:29;;;;;;;10.63;9.10;;;;;;;;;;5030643;28;20902;-53
2021/05/31 08:43:56;;;;;;;11.27;8.00;;;;;;;;;;5030896;28;20433;-51
2021/05/31 08:46:22;;;;;;;12.20;7.33;;;;;;;;;;5030650;28;20490;-53
2021/05/31 08:48:48;;;;;;;11.93;8.60;;;;;;;;;;5030724;28;20509;-52
2021/05/31 08:51:17;;;;;;;10.40;7.80;;;;;;;;;;5030508;28;20428;-52
2021/05/31 08:53:44;;;;;;;9.63;5.73;;;;;;;;;;5031015;28;20430;-52
2021/05/31 08:56:10;;;;;;;9.40;6.60;;;;;;;;;;5030839;28;20430;-52
2021/05/31 08:58:36;;;;;;;13.00;6.37;;;;;;;;;;5030722;28;20418;-53
2021/05/31 09:01:02;;;;;;;7.50;6.70;;;;;;;;;;5030782;28;20821;-53
2021/05/31 09:03:28;;;;;;;9.83;6.17;;;;;;;;;;5030278;28;20437;-53
2021/05/31 09:05:58;;;;;;;11.70;6.60;;;;;;;;;;5030572;28;20402;-52
2021/05/31 09:08:24;;;;;;;9.97;5.53;;;;;;;;;;5030434;28;21013;-52
2021/05/31 09:10:55;;;;;;;14.73;7.43;;;;;;;;;;5039270;28;20484;-52
2021/05/31 09:13:36;;;;;;;8.33;6.40;;;;;;;;;;5049902;28;20445;-51
2021/05/31 09:16:13;;;;;;;6.37;5.57;;;;;;;;;;5050497;28;20930;-52
2021/05/31 09:18:40;;;;;;;14.20;5.73;;;;;;;;;;5050554;28;20433;-53
2021/05/31 09:21:12;;;;;;;5.80;5.30;;;;;;;;;;5051934;28;20488;-52
2021/05/31 09:23:38;;;;;;;8.23;5.67;;;;;;;;;;5053162;28;20905;-52
2021/05/31 09:26:05;;;;;;;5.97;5.37;;;;;;;;;;5054167;28;20401;-52
2021/05/31 09:28:31;;;;;;;5.10;4.60;;;;;;;;;;5054009;28;20459;-52
2021/05/31 09:30:58;;;;;;;6.73;6.10;;;;;;;;;;5054087;28;20398;-51
2021/05/31 09:33:24;;;;;;;11.87;6.30;;;;;;;;;;5053998;28;20397;-53
2021/05/31 09:35:51;;;;;;;8.80;6.00;;;;;;;;;;5054146;28;20436;-53
2021/05/31 09:38:18;;;;;;;8.30;6.07;;;;;;;;;;5053958;28;20454;-52
2021/05/31 09:40:52;;;;;;;7.10;5.77;;;;;;;;;;5054083;28;20488;-53
2021/05/31 09:43:22;;;;;;;7.10;6.03;;;;;;;;;;5053561;28;20487;-53
2021/05/31 09:45:48;;;;;;;8.40;6.97;;;;;;;;;;5052636;28;20982;-51
2021/05/31 09:48:15;;;;;;;9.30;5.77;;;;;;;;;;5051775;28;20464;-52
2021/05/31 09:50:41;;;;;;;5.80;5.17;;;;;;;;;;5052921;28;20773;-52
2021/05/31 09:53:11;;;;;;;6.63;5.93;;;;;;;;;;5053146;28;20887;-52
2021/05/31 09:55:47;;;;;;;8.20;5.87;;;;;;;;;;5053467;28;20405;-52
2021/05/31 09:58:15;;;;;;;6.60;5.80;;;;;;;;;;5053496;28;20423;-54
2021/05/31 10:00:45;;;;;;;10.30;6.67;;;;;;;;;;5053510;28;20431;-54
2021/05/31 10:05:48;;;;;;;9.57;6.50;;;;;;;;;;5053674;28;20416;-52
2021/05/31 10:10:40;;;;;;;5.83;5.23;;;;;;;;;;5053745;28;20410;-53
2021/05/31 10:13:06;;;;;;;7.60;6.53;;;;;;;;;;5053604;28;20397;-52
2021/05/31 10:15:35;;;;;;;9.63;6.17;;;;;;;;;;5053532;28;20397;-52
2021/05/31 10:18:01;;;;;;;5.83;5.33;;;;;;;;;;5051657;28;20456;-51
2021/05/31 10:20:29;;;;;;;4.90;4.50;;;;;;;;;;5053537;28;20425;-52
2021/05/31 10:22:55;;;;;;;4.47;4.07;;;;;;;;;;5053472;28;20401;-52
2021/05/31 10:25:23;;;;;;;4.80;4.50;;;;;;;;;;5053026;28;20424;-52
2021/05/31 10:27:54;;;;;;;4.30;4.00;;;;;;;;;;5052958;28;20979;-52
2021/05/31 10:30:21;;;;;;;10.40;3.47;;;;;;;;;;5053162;28;20951;-51
2021/05/31 10:32:47;;;;;;;5.03;4.50;;;;;;;;;;5051420;28;20944;-52
2021/05/31 10:35:25;;;;;;;7.07;5.47;;;;;;;;;;5052844;28;20799;-52
2021/05/31 10:37:55;;;;;;;4.97;4.30;;;;;;;;;;5053057;28;20422;-52
2021/05/31 10:40:22;;;;;;;6.60;4.60;;;;;;;;;;5053125;28;20401;-52
2021/05/31 10:42:55;;;;;;;7.17;4.93;;;;;;;;;;5052449;28;20401;-52
2021/05/31 10:45:24;;;;;;;7.23;4.70;;;;;;;;;;5052651;28;20494;-52
2021/05/31 10:47:56;;;;;;;6.17;5.57;;;;;;;;;;5051910;28;20468;-53
2021/05/31 10:50:28;;;;;;;7.13;5.03;;;;;;;;;;5052947;28;20420;-52
2021/05/31 10:52:56;;;;;;;9.67;5.70;;;;;;;;;;5052397;28;20448;-52
2021/05/31 10:55:22;;;;;;;5.33;4.63;;;;;;;;;;5052662;28;20467;-52
2021/05/31 10:57:48;;;;;;;6.60;4.90;;;;;;;;;;5052734;28;20398;-52
2021/05/31 11:00:24;;;;;;;8.50;4.93;;;;;;;;;;5052518;28;20850;-52
2021/05/31 11:02:50;;;;;;;4.63;4.23;;;;;;;;;;5052682;28;20420;-53
2021/05/31 11:05:17;;;;;;;5.30;4.60;;;;;;;;;;5052543;28;20433;-53
2021/05/31 11:07:42;;;;;;;4.20;3.80;;;;;;;;;;5052455;28;20501;-52
2021/05/31 11:10:16;;;;;;;5.50;5.00;;;;;;;;;;5052478;28;20497;-53
2021/05/31 11:12:42;;;;;;;6.87;5.33;;;;;;;;;;5052284;28;20408;-53
2021/05/31 11:15:10;;;;;;;5.57;4.70;;;;;;;;;;5052145;28;20405;-53
2021/05/31 11:17:53;;;;;;;6.73;5.37;;;;;;;;;;5052022;28;20429;-52
2021/05/31 11:20:19;;;;;;;7.23;6.53;;;;;;;;;;5052204;28;20417;-53
2021/05/31 11:23:11;;;;;;;5.90;5.10;;;;;;;;;;5052116;28;20409;-52
2021/05/31 11:25:37;;;;;;;4.83;4.20;;;;;;;;;;5050860;28;20432;-52
2021/05/31 11:28:04;;;;;;;8.63;5.17;;;;;;;;;;5052090;28;20972;-53
2021/05/31 11:30:31;;;;;;;4.93;3.03;;;;;;;;;;5052017;28;21035;-52
2021/05/31 11:32:59;;;;;;;4.87;3.90;;;;;;;;;;5051858;28;20394;-52
2021/05/31 11:35:26;;;;;;;5.70;4.10;;;;;;;;;;5051861;28;20436;-53
2021/05/31 11:37:53;;;;;;;5.90;4.30;;;;;;;;;;5051868;28;20428;-52
2021/05/31 11:40:22;;;;;;;5.57;3.60;;;;;;;;;;5051800;28;20417;-53
2021/05/31 11:42:52;;;;;;;3.73;3.30;;;;;;;;;;5051818;28;20455;-52
2021/05/31 11:45:19;;;;;;;4.10;3.43;;;;;;;;;;5051609;28;20431;-51
2021/05/31 11:47:46;;;;;;;3.70;3.50;;;;;;;;;;5051613;28;20528;-52
2021/05/31 11:50:18;;;;;;;4.43;4.03;;;;;;;;;;5051842;28;20456;-53
2021/05/31 11:52:44;;;;;;;5.97;3.80;;;;;;;;;;5051333;28;20397;-52
2021/05/31 11:55:16;;;;;;;7.67;3.93;;;;;;;;;;5051785;28;20405;-51
2021/05/31 11:57:43;;;;;;;3.60;3.30;;;;;;;;;;5051540;28;20405;-52
2021/05/31 12:00:09;;;;;;;5.97;4.10;;;;;;;;;;5051789;28;20416;-52
2021/05/31 12:02:37;;;;;;;4.13;3.83;;;;;;;;;;5051294;28;20409;-52
2021/05/31 12:05:04;;;;;;;4.33;3.40;;;;;;;;;;5051573;28;20417;-52
2021/05/31 12:07:30;;;;;;;3.10;2.90;;;;;;;;;;5051339;28;20614;-52
2021/05/31 12:09:56;;;;;;;3.07;2.87;;;;;;;;;;5051782;28;20401;-52
2021/05/31 12:12:24;;;;;;;3.67;3.40;;;;;;;;;;5051133;28;20406;-52
2021/05/31 12:14:51;;;;;;;4.90;3.70;;;;;;;;;;5051505;28;20491;-53
2021/05/31 12:17:18;;;;;;;4.03;3.73;;;;;;;;;;5051191;28;20413;-52
2021/05/31 12:19:45;;;;;;;4.00;3.63;;;;;;;;;;5051171;28;20909;-52
2021/05/31 12:22:11;;;;;;;6.47;3.63;;;;;;;;;;5051152;28;20409;-52
2021/05/31 12:24:38;;;;;;;5.90;3.53;;;;;;;;;;5051030;28;20408;-52
2021/05/31 12:27:05;;;;;;;3.67;3.40;;;;;;;;;;5051113;28;20464;-52
2021/05/31 12:29:32;;;;;;;4.53;3.70;;;;;;;;;;5050919;28;20413;-53
2021/05/31 12:31:58;;;;;;;7.77;3.77;;;;;;;;;;5050907;28;20455;-52
2021/05/31 12:34:25;;;;;;;3.77;3.30;;;;;;;;;;5046086;28;20429;-52
2021/05/31 12:36:52;;;;;;;4.90;3.70;;;;;;;;;;5049426;28;20417;-53
2021/05/31 12:39:18;;;;;;;4.80;3.80;;;;;;;;;;5050319;28;20472;-52
2021/05/31 12:41:45;;;;;;;3.97;3.67;;;;;;;;;;5046881;28;20487;-52
2021/05/31 12:44:11;;;;;;;4.27;3.83;;;;;;;;;;5044537;28;20475;-53
2021/05/31 12:46:38;;;;;;;4.40;4.00;;;;;;;;;;5032212;28;20488;-53
2021/05/31 12:49:04;;;;;;;3.70;3.40;;;;;;;;;;5030944;28;20834;-52
2021/05/31 12:51:30;;;;;;;4.20;3.60;;;;;;;;;;5041786;28;20810;-52
2021/05/31 12:54:00;;;;;;;6.50;3.50;;;;;;;;;;5041697;28;20406;-52
2021/05/31 12:56:29;;;;;;;4.87;3.93;;;;;;;;;;5035865;28;20445;-53
2021/05/31 12:59:02;;;;;;;4.90;3.60;;;;;;;;;;5030747;28;20492;-52
2021/05/31 13:01:29;;;;;;;7.70;3.43;;;;;;;;;;5036984;28;20496;-52
2021/05/31 13:03:56;;;;;;;4.00;3.60;;;;;;;;;;5049180;28;20464;-53
2021/05/31 13:06:35;;;;;;;4.13;3.83;;;;;;;;;;5034702;28;20414;-53
2021/05/31 13:09:01;;;;;;;5.60;4.30;;;;;;;;;;5037313;28;20430;-52
2021/05/31 13:11:38;;;;;;;4.23;3.90;;;;;;;;;;5041456;28;20417;-52
2021/05/31 13:14:13;;;;;;;5.53;3.77;;;;;;;;;;5040966;28;20781;-52
2021/05/31 13:16:39;;;;;;;3.87;3.57;;;;;;;;;;5050430;28;20408;-53
2021/05/31 13:19:15;;;;;;;4.10;3.70;;;;;;;;;;5036341;28;20446;-52
2021/05/31 13:21:41;;;;;;;5.83;4.20;;;;;;;;;;5034912;28;20427;-54
2021/05/31 13:24:07;;;;;;;4.33;3.53;;;;;;;;;;5049199;28;20913;-52
2021/05/31 13:26:36;;;;;;;6.60;4.10;;;;;;;;;;5044303;28;20453;-52
2021/05/31 13:29:01;;;;;;;4.20;3.90;;;;;;;;;;5038871;28;20472;-53
2021/05/31 13:31:28;;;;;;;3.90;3.60;;;;;;;;;;5029988;28;20780;-52
2021/05/31 13:33:55;;;;;;;4.27;3.87;;;;;;;;;;5028596;28;20426;-52
2021/05/31 13:36:25;;;;;;;5.13;3.90;;;;;;;;;;5028607;28;20436;-52
2021/05/31 13:38:52;;;;;;;6.97;3.97;;;;;;;;;;5029463;28;20509;-52
2021/05/31 13:41:18;;;;;;;5.97;4.10;;;;;;;;;;5029704;28;20406;-53
2021/05/31 13:43:53;;;;;;;6.30;3.60;;;;;;;;;;5030127;28;20406;-54
2021/05/31 13:46:19;;;;;;;6.53;3.83;;;;;;;;;;5030512;28;20398;-52
2021/05/31 13:48:46;;;;;;;8.90;4.40;;;;;;;;;;5030290;28;20938;-52
2021/05/31 13:51:12;;;;;;;3.63;3.33;;;;;;;;;;5030538;28;20410;-55
2021/05/31 13:53:38;;;;;;;5.97;4.47;;;;;;;;;;5030375;28;20492;-52
2021/05/31 13:56:04;;;;;;;3.97;3.57;;;;;;;;;;5030484;28;20506;-52
2021/05/31 13:58:30;;;;;;;6.87;3.97;;;;;;;;;;5030494;28;20866;-52
2021/05/31 14:00:56;;;;;;;5.27;4.30;;;;;;;;;;5030215;28;20914;-52
2021/05/31 14:03:22;;;;;;;4.23;3.80;;;;;;;;;;5030034;28;20405;-52
2021/05/31 14:05:50;;;;;;;3.90;3.60;;;;;;;;;;5030487;28;20905;-52
2021/05/31 14:08:17;;;;;;;3.90;3.60;;;;;;;;;;5032993;28;20481;-52
2021/05/31 14:10:43;;;;;;;4.40;4.00;;;;;;;;;;5033577;28;20770;-53
2021/05/31 14:13:10;;;;;;;4.50;4.20;;;;;;;;;;5033601;28;20918;-52
2021/05/31 14:15:36;;;;;;;5.93;3.77;;;;;;;;;;5033572;28;20402;-52
2021/05/31 14:18:03;;;;;;;4.80;3.80;;;;;;;;;;5033597;28;20421;-52
2021/05/31 14:20:30;;;;;;;4.97;4.43;;;;;;;;;;5033433;28;20441;-53
2021/05/31 14:22:59;;;;;;;3.73;3.50;;;;;;;;;;5033274;28;20399;-52
2021/05/31 14:25:27;;;;;;;8.93;4.30;;;;;;;;;;5033332;28;20406;-53
2021/05/31 14:27:54;;;;;;;5.50;4.07;;;;;;;;;;5033274;28;20457;-53
2021/05/31 14:30:20;;;;;;;4.33;3.90;;;;;;;;;;5033341;28;20413;-53
2021/05/31 14:32:47;;;;;;;4.23;3.93;;;;;;;;;;5033175;28;20413;-52
2021/05/31 14:35:13;;;;;;;4.00;3.70;;;;;;;;;;5033119;28;20922;-52
2021/05/31 14:37:39;;;;;;;3.80;3.40;;;;;;;;;;5033078;28;20402;-52
2021/05/31 14:40:07;;;;;;;4.50;4.10;;;;;;;;;;5033219;28;20429;-52
2021/05/31 14:42:33;;;;;;;4.23;3.80;;;;;;;;;;5032810;28;20906;-52
2021/05/31 14:44:59;;;;;;;5.03;4.00;;;;;;;;;;5033208;28;20445;-52
2021/05/31 14:47:27;;;;;;;7.33;3.87;;;;;;;;;;5032865;28;20939;-52
2021/05/31 14:49:53;;;;;;;3.90;3.60;;;;;;;;;;5032948;28;20775;-52
2021/05/31 14:52:19;;;;;;;4.43;4.03;;;;;;;;;;5032599;28;20413;-52
2021/05/31 14:54:47;;;;;;;4.70;3.70;;;;;;;;;;5032946;28;20774;-53
2021/05/31 14:57:13;;;;;;;7.90;3.87;;;;;;;;;;5032869;28;20441;-52
2021/05/31 14:59:39;;;;;;;5.53;3.90;;;;;;;;;;5032847;28;20430;-52